sensor_id;sensor_type;location;lat;lon;timestamp;P1;durP1;ratioP1;P2;durP2;ratioP2
26989;SDS011;14537;47.788;11.858;2024-01-06T00:00:34;6.03;;;3.03;;
26989;SDS011;14537;47.788;11.858;2024-01-06T00:03:00;7.80;;;3.00;;
26989;SDS011;14537;47.788;11.858;2024-01-06T00:05:25;6.45;;;3.30;;
26989;SDS011;14537;47.788;11.858;2024-01-06T00:07:51;10.20;;;3.25;;
26989;SDS011;14537;47.788;11.858;2024-01-06T00:10:17;5.35;;;3.13;;
26989;SDS011;14537;47.788;11.858;2024-01-06T00:12:42;3.95;;;2.70;;
26989;SDS011;14537;47.788;11.858;2024-01-06T00:15:08;6.43;;;2.93;;
26989;SDS011;14537;47.788;11.858;2024-01-06T00:17:34;4.95;;;2.92;;
26989;SDS011;14537;47.788;11.858;2024-01-06T00:19:59;5.28;;;3.10;;
26989;SDS011;14537;47.788;11.858;2024-01-06T00:22:27;5.03;;;3.10;;
26989;SDS011;14537;47.788;11.858;2024-01-06T00:24:53;5.75;;;3.10;;
26989;SDS011;14537;47.788;11.858;2024-01-06T00:27:18;3.67;;;2.53;;
26989;SDS011;14537;47.788;11.858;2024-01-06T00:29:44;2.42;;;2.13;;
26989;SDS011;14537;47.788;11.858;2024-01-06T00:32:10;4.13;;;1.65;;
26989;SDS011;14537;47.788;11.858;2024-01-06T00:34:35;2.35;;;1.77;;
26989;SDS011;14537;47.788;11.858;2024-01-06T00:37:01;4.47;;;2.42;;
26989;SDS011;14537;47.788;11.858;2024-01-06T00:39:26;3.92;;;2.35;;
26989;SDS011;14537;47.788;11.858;2024-01-06T00:41:52;3.30;;;2.60;;
26989;SDS011;14537;47.788;11.858;2024-01-06T00:44:18;5.53;;;2.65;;
26989;SDS011;14537;47.788;11.858;2024-01-06T00:46:44;4.43;;;2.83;;
26989;SDS011;14537;47.788;11.858;2024-01-06T00:49:10;6.28;;;3.38;;
26989;SDS011;14537;47.788;11.858;2024-01-06T00:51:35;6.32;;;3.42;;
26989;SDS011;14537;47.788;11.858;2024-01-06T00:54:01;5.95;;;3.25;;
26989;SDS011;14537;47.788;11.858;2024-01-06T00:56:27;5.03;;;3.58;;
26989;SDS011;14537;47.788;11.858;2024-01-06T00:58:53;8.05;;;4.32;;
26989;SDS011;14537;47.788;11.858;2024-01-06T01:01:19;5.93;;;3.63;;
26989;SDS011;14537;47.788;11.858;2024-01-06T01:03:45;6.32;;;3.83;;
26989;SDS011;14537;47.788;11.858;2024-01-06T01:06:10;6.47;;;4.15;;
26989;SDS011;14537;47.788;11.858;2024-01-06T01:08:36;6.78;;;4.20;;
26989;SDS011;14537;47.788;11.858;2024-01-06T01:11:01;10.15;;;4.85;;
26989;SDS011;14537;47.788;11.858;2024-01-06T01:13:27;8.57;;;5.05;;
26989;SDS011;14537;47.788;11.858;2024-01-06T01:15:53;7.97;;;4.25;;
26989;SDS011;14537;47.788;11.858;2024-01-06T01:18:18;6.30;;;4.13;;
26989;SDS011;14537;47.788;11.858;2024-01-06T01:20:44;7.00;;;3.75;;
26989;SDS011;14537;47.788;11.858;2024-01-06T01:23:10;6.85;;;4.40;;
26989;SDS011;14537;47.788;11.858;2024-01-06T01:25:35;9.02;;;5.28;;
26989;SDS011;14537;47.788;11.858;2024-01-06T01:28:01;10.35;;;5.63;;
26989;SDS011;14537;47.788;11.858;2024-01-06T01:30:27;12.23;;;5.35;;
26989;SDS011;14537;47.788;11.858;2024-01-06T01:32:52;11.32;;;4.80;;
26989;SDS011;14537;47.788;11.858;2024-01-06T01:35:18;8.45;;;4.43;;
26989;SDS011;14537;47.788;11.858;2024-01-06T01:37:43;7.05;;;4.07;;
26989;SDS011;14537;47.788;11.858;2024-01-06T01:40:09;7.70;;;4.28;;
26989;SDS011;14537;47.788;11.858;2024-01-06T01:42:35;8.30;;;4.50;;
26989;SDS011;14537;47.788;11.858;2024-01-06T01:45:01;9.85;;;4.00;;
26989;SDS011;14537;47.788;11.858;2024-01-06T01:47:26;8.68;;;4.32;;
26989;SDS011;14537;47.788;11.858;2024-01-06T01:49:52;8.35;;;4.20;;
26989;SDS011;14537;47.788;11.858;2024-01-06T01:52:20;7.63;;;4.10;;
26989;SDS011;14537;47.788;11.858;2024-01-06T01:54:45;7.22;;;4.30;;
26989;SDS011;14537;47.788;11.858;2024-01-06T01:57:12;6.15;;;3.70;;
26989;SDS011;14537;47.788;11.858;2024-01-06T01:59:40;9.07;;;3.70;;
26989;SDS011;14537;47.788;11.858;2024-01-06T02:02:06;9.18;;;3.13;;
26989;SDS011;14537;47.788;11.858;2024-01-06T02:04:33;8.70;;;3.15;;
26989;SDS011;14537;47.788;11.858;2024-01-06T02:06:59;9.48;;;3.40;;
26989;SDS011;14537;47.788;11.858;2024-01-06T02:09:24;6.63;;;3.15;;
26989;SDS011;14537;47.788;11.858;2024-01-06T02:11:54;10.32;;;3.80;;
26989;SDS011;14537;47.788;11.858;2024-01-06T02:14:21;7.00;;;3.10;;
26989;SDS011;14537;47.788;11.858;2024-01-06T02:16:47;6.72;;;3.17;;
26989;SDS011;14537;47.788;11.858;2024-01-06T02:19:12;7.00;;;3.45;;
26989;SDS011;14537;47.788;11.858;2024-01-06T02:21:42;6.30;;;2.97;;
26989;SDS011;14537;47.788;11.858;2024-01-06T02:24:09;5.53;;;3.50;;
26989;SDS011;14537;47.788;11.858;2024-01-06T02:26:35;9.70;;;4.00;;
26989;SDS011;14537;47.788;11.858;2024-01-06T02:29:00;7.80;;;3.45;;
26989;SDS011;14537;47.788;11.858;2024-01-06T02:31:26;7.82;;;3.67;;
26989;SDS011;14537;47.788;11.858;2024-01-06T02:33:52;7.47;;;3.20;;
26989;SDS011;14537;47.788;11.858;2024-01-06T02:36:18;6.32;;;2.97;;
26989;SDS011;14537;47.788;11.858;2024-01-06T02:38:44;5.22;;;2.92;;
26989;SDS011;14537;47.788;11.858;2024-01-06T02:41:09;4.65;;;2.55;;
26989;SDS011;14537;47.788;11.858;2024-01-06T02:43:35;4.72;;;2.88;;
26989;SDS011;14537;47.788;11.858;2024-01-06T02:46:01;7.60;;;2.95;;
26989;SDS011;14537;47.788;11.858;2024-01-06T02:48:26;4.28;;;2.67;;
26989;SDS011;14537;47.788;11.858;2024-01-06T02:50:52;3.78;;;2.63;;
26989;SDS011;14537;47.788;11.858;2024-01-06T02:53:17;5.47;;;2.45;;
26989;SDS011;14537;47.788;11.858;2024-01-06T02:55:43;5.20;;;2.40;;
26989;SDS011;14537;47.788;11.858;2024-01-06T02:58:08;5.03;;;2.22;;
26989;SDS011;14537;47.788;11.858;2024-01-06T03:00:34;4.15;;;1.88;;
26989;SDS011;14537;47.788;11.858;2024-01-06T03:03:00;6.25;;;2.33;;
26989;SDS011;14537;47.788;11.858;2024-01-06T03:05:25;4.28;;;2.42;;
26989;SDS011;14537;47.788;11.858;2024-01-06T03:07:51;5.72;;;2.38;;
26989;SDS011;14537;47.788;11.858;2024-01-06T03:10:17;6.10;;;2.45;;
26989;SDS011;14537;47.788;11.858;2024-01-06T03:12:42;7.65;;;3.00;;
26989;SDS011;14537;47.788;11.858;2024-01-06T03:15:08;4.38;;;2.63;;
26989;SDS011;14537;47.788;11.858;2024-01-06T03:17:34;6.15;;;2.67;;
26989;SDS011;14537;47.788;11.858;2024-01-06T03:19:59;3.25;;;2.15;;
26989;SDS011;14537;47.788;11.858;2024-01-06T03:22:25;5.10;;;2.28;;
26989;SDS011;14537;47.788;11.858;2024-01-06T03:24:50;3.20;;;2.22;;
26989;SDS011;14537;47.788;11.858;2024-01-06T03:27:16;5.30;;;2.22;;
26989;SDS011;14537;47.788;11.858;2024-01-06T03:29:41;3.50;;;2.15;;
26989;SDS011;14537;47.788;11.858;2024-01-06T03:32:07;4.75;;;1.92;;
26989;SDS011;14537;47.788;11.858;2024-01-06T03:34:33;5.32;;;2.83;;
26989;SDS011;14537;47.788;11.858;2024-01-06T03:36:58;4.35;;;2.10;;
26989;SDS011;14537;47.788;11.858;2024-01-06T03:39:24;5.45;;;2.53;;
26989;SDS011;14537;47.788;11.858;2024-01-06T03:41:49;7.05;;;2.97;;
26989;SDS011;14537;47.788;11.858;2024-01-06T03:44:15;3.15;;;2.30;;
26989;SDS011;14537;47.788;11.858;2024-01-06T03:46:40;8.82;;;2.88;;
26989;SDS011;14537;47.788;11.858;2024-01-06T03:49:06;4.22;;;2.50;;
26989;SDS011;14537;47.788;11.858;2024-01-06T03:51:32;6.25;;;2.40;;
26989;SDS011;14537;47.788;11.858;2024-01-06T03:53:57;4.25;;;2.40;;
26989;SDS011;14537;47.788;11.858;2024-01-06T03:56:23;4.93;;;2.63;;
26989;SDS011;14537;47.788;11.858;2024-01-06T03:58:48;3.47;;;2.33;;
26989;SDS011;14537;47.788;11.858;2024-01-06T04:01:14;3.63;;;2.22;;
26989;SDS011;14537;47.788;11.858;2024-01-06T04:03:39;4.70;;;2.58;;
26989;SDS011;14537;47.788;11.858;2024-01-06T04:06:05;6.78;;;2.97;;
26989;SDS011;14537;47.788;11.858;2024-01-06T04:08:31;5.90;;;2.65;;
26989;SDS011;14537;47.788;11.858;2024-01-06T04:10:57;5.20;;;2.53;;
26989;SDS011;14537;47.788;11.858;2024-01-06T04:13:22;5.68;;;3.03;;
26989;SDS011;14537;47.788;11.858;2024-01-06T04:15:50;6.25;;;2.80;;
26989;SDS011;14537;47.788;11.858;2024-01-06T04:18:15;5.15;;;2.88;;
26989;SDS011;14537;47.788;11.858;2024-01-06T04:20:41;6.07;;;3.35;;
26989;SDS011;14537;47.788;11.858;2024-01-06T04:23:07;6.38;;;2.80;;
26989;SDS011;14537;47.788;11.858;2024-01-06T04:25:32;9.82;;;3.65;;
26989;SDS011;14537;47.788;11.858;2024-01-06T04:27:58;7.97;;;3.30;;
26989;SDS011;14537;47.788;11.858;2024-01-06T04:30:23;5.18;;;3.00;;
26989;SDS011;14537;47.788;11.858;2024-01-06T04:32:50;9.05;;;3.58;;
26989;SDS011;14537;47.788;11.858;2024-01-06T04:35:16;6.70;;;2.97;;
26989;SDS011;14537;47.788;11.858;2024-01-06T04:37:43;5.50;;;3.25;;
26989;SDS011;14537;47.788;11.858;2024-01-06T04:40:09;6.05;;;3.33;;
26989;SDS011;14537;47.788;11.858;2024-01-06T04:42:35;5.72;;;3.05;;
26989;SDS011;14537;47.788;11.858;2024-01-06T04:45:01;6.78;;;3.38;;
26989;SDS011;14537;47.788;11.858;2024-01-06T04:47:27;7.35;;;3.17;;
26989;SDS011;14537;47.788;11.858;2024-01-06T04:49:55;7.35;;;3.78;;
26989;SDS011;14537;47.788;11.858;2024-01-06T04:52:21;4.80;;;3.30;;
26989;SDS011;14537;47.788;11.858;2024-01-06T04:54:47;8.55;;;3.97;;
26989;SDS011;14537;47.788;11.858;2024-01-06T04:57:12;5.88;;;3.45;;
26989;SDS011;14537;47.788;11.858;2024-01-06T04:59:39;8.05;;;3.65;;
26989;SDS011;14537;47.788;11.858;2024-01-06T05:02:04;7.95;;;3.83;;
26989;SDS011;14537;47.788;11.858;2024-01-06T05:04:30;7.30;;;3.83;;
26989;SDS011;14537;47.788;11.858;2024-01-06T05:06:57;5.78;;;3.70;;
26989;SDS011;14537;47.788;11.858;2024-01-06T05:09:23;9.85;;;3.53;;
26989;SDS011;14537;47.788;11.858;2024-01-06T05:11:49;9.63;;;4.60;;
26989;SDS011;14537;47.788;11.858;2024-01-06T05:14:15;8.10;;;3.70;;
26989;SDS011;14537;47.788;11.858;2024-01-06T05:16:41;9.30;;;4.32;;
26989;SDS011;14537;47.788;11.858;2024-01-06T05:19:07;7.78;;;4.10;;
26989;SDS011;14537;47.788;11.858;2024-01-06T05:21:33;8.80;;;4.70;;
26989;SDS011;14537;47.788;11.858;2024-01-06T05:23:59;6.70;;;3.70;;
26989;SDS011;14537;47.788;11.858;2024-01-06T05:26:26;5.63;;;3.30;;
26989;SDS011;14537;47.788;11.858;2024-01-06T05:28:51;11.65;;;5.20;;
26989;SDS011;14537;47.788;11.858;2024-01-06T05:31:17;8.23;;;4.70;;
26989;SDS011;14537;47.788;11.858;2024-01-06T05:33:43;7.75;;;3.80;;
26989;SDS011;14537;47.788;11.858;2024-01-06T05:36:09;8.73;;;4.18;;
26989;SDS011;14537;47.788;11.858;2024-01-06T05:38:36;8.70;;;4.35;;
26989;SDS011;14537;47.788;11.858;2024-01-06T05:41:02;10.48;;;4.40;;
26989;SDS011;14537;47.788;11.858;2024-01-06T05:43:27;7.45;;;4.25;;
26989;SDS011;14537;47.788;11.858;2024-01-06T05:45:53;10.57;;;4.50;;
26989;SDS011;14537;47.788;11.858;2024-01-06T05:48:19;8.55;;;4.35;;
26989;SDS011;14537;47.788;11.858;2024-01-06T05:50:44;7.97;;;4.15;;
26989;SDS011;14537;47.788;11.858;2024-01-06T05:53:10;8.27;;;3.85;;
26989;SDS011;14537;47.788;11.858;2024-01-06T05:55:36;5.38;;;3.25;;
26989;SDS011;14537;47.788;11.858;2024-01-06T05:58:03;11.85;;;4.68;;
26989;SDS011;14537;47.788;11.858;2024-01-06T06:00:29;10.27;;;4.50;;
26989;SDS011;14537;47.788;11.858;2024-01-06T06:02:56;8.45;;;3.88;;
26989;SDS011;14537;47.788;11.858;2024-01-06T06:05:22;4.65;;;2.53;;
26989;SDS011;14537;47.788;11.858;2024-01-06T06:07:48;6.53;;;3.15;;
26989;SDS011;14537;47.788;11.858;2024-01-06T06:10:13;3.58;;;2.08;;
26989;SDS011;14537;47.788;11.858;2024-01-06T06:12:41;4.20;;;2.33;;
26989;SDS011;14537;47.788;11.858;2024-01-06T06:15:07;3.95;;;2.30;;
26989;SDS011;14537;47.788;11.858;2024-01-06T06:17:33;2.15;;;1.80;;
26989;SDS011;14537;47.788;11.858;2024-01-06T06:19:59;2.80;;;1.60;;
26989;SDS011;14537;47.788;11.858;2024-01-06T06:22:25;2.40;;;1.40;;
26989;SDS011;14537;47.788;11.858;2024-01-06T06:24:59;2.13;;;1.40;;
26989;SDS011;14537;47.788;11.858;2024-01-06T06:27:25;1.85;;;1.20;;
26989;SDS011;14537;47.788;11.858;2024-01-06T06:29:51;1.75;;;1.17;;
26989;SDS011;14537;47.788;11.858;2024-01-06T06:32:17;1.10;;;0.98;;
26989;SDS011;14537;47.788;11.858;2024-01-06T06:34:43;1.67;;;1.10;;
26989;SDS011;14537;47.788;11.858;2024-01-06T06:37:08;1.80;;;1.05;;
26989;SDS011;14537;47.788;11.858;2024-01-06T06:39:34;1.60;;;1.08;;
26989;SDS011;14537;47.788;11.858;2024-01-06T06:42:00;0.73;;;0.65;;
26989;SDS011;14537;47.788;11.858;2024-01-06T06:44:26;0.80;;;0.80;;
26989;SDS011;14537;47.788;11.858;2024-01-06T06:46:52;1.17;;;1.00;;
26989;SDS011;14537;47.788;11.858;2024-01-06T06:49:18;1.25;;;0.57;;
26989;SDS011;14537;47.788;11.858;2024-01-06T06:51:43;1.27;;;0.88;;
26989;SDS011;14537;47.788;11.858;2024-01-06T06:56:40;0.50;;;0.50;;
26989;SDS011;14537;47.788;11.858;2024-01-06T06:59:09;0.85;;;0.77;;
26989;SDS011;14537;47.788;11.858;2024-01-06T07:01:34;0.88;;;0.82;;
26989;SDS011;14537;47.788;11.858;2024-01-06T07:04:00;1.73;;;1.02;;
26989;SDS011;14537;47.788;11.858;2024-01-06T07:06:27;0.90;;;0.55;;
26989;SDS011;14537;47.788;11.858;2024-01-06T07:08:53;1.08;;;0.80;;
26989;SDS011;14537;47.788;11.858;2024-01-06T07:11:19;0.93;;;0.80;;
26989;SDS011;14537;47.788;11.858;2024-01-06T07:13:45;1.23;;;0.90;;
26989;SDS011;14537;47.788;11.858;2024-01-06T07:16:11;1.40;;;0.98;;
26989;SDS011;14537;47.788;11.858;2024-01-06T07:18:36;1.88;;;1.05;;
26989;SDS011;14537;47.788;11.858;2024-01-06T07:21:04;1.83;;;1.00;;
26989;SDS011;14537;47.788;11.858;2024-01-06T07:23:31;1.75;;;0.93;;
26989;SDS011;14537;47.788;11.858;2024-01-06T07:25:57;2.13;;;1.02;;
26989;SDS011;14537;47.788;11.858;2024-01-06T07:28:23;1.17;;;0.90;;
26989;SDS011;14537;47.788;11.858;2024-01-06T07:30:49;1.17;;;0.90;;
26989;SDS011;14537;47.788;11.858;2024-01-06T07:33:14;2.85;;;1.08;;
26989;SDS011;14537;47.788;11.858;2024-01-06T07:35:40;0.98;;;0.90;;
26989;SDS011;14537;47.788;11.858;2024-01-06T07:38:08;1.77;;;1.10;;
26989;SDS011;14537;47.788;11.858;2024-01-06T07:40:35;1.17;;;1.08;;
26989;SDS011;14537;47.788;11.858;2024-01-06T07:43:01;1.45;;;0.90;;
26989;SDS011;14537;47.788;11.858;2024-01-06T07:45:27;4.88;;;1.38;;
26989;SDS011;14537;47.788;11.858;2024-01-06T07:47:55;3.60;;;1.33;;
26989;SDS011;14537;47.788;11.858;2024-01-06T07:50:20;1.48;;;0.68;;
26989;SDS011;14537;47.788;11.858;2024-01-06T07:52:46;1.35;;;1.05;;
26989;SDS011;14537;47.788;11.858;2024-01-06T07:55:11;0.73;;;0.60;;
26989;SDS011;14537;47.788;11.858;2024-01-06T07:57:37;3.35;;;1.40;;
26989;SDS011;14537;47.788;11.858;2024-01-06T08:00:03;1.58;;;0.70;;
26989;SDS011;14537;47.788;11.858;2024-01-06T08:02:30;2.05;;;1.20;;
26989;SDS011;14537;47.788;11.858;2024-01-06T08:04:55;0.95;;;0.88;;
26989;SDS011;14537;47.788;11.858;2024-01-06T08:07:21;0.85;;;0.77;;
26989;SDS011;14537;47.788;11.858;2024-01-06T08:09:47;0.50;;;0.50;;
26989;SDS011;14537;47.788;11.858;2024-01-06T08:12:14;4.85;;;1.70;;
26989;SDS011;14537;47.788;11.858;2024-01-06T08:14:40;3.55;;;1.55;;
26989;SDS011;14537;47.788;11.858;2024-01-06T08:17:05;0.93;;;0.80;;
26989;SDS011;14537;47.788;11.858;2024-01-06T08:19:31;5.63;;;2.22;;
26989;SDS011;14537;47.788;11.858;2024-01-06T08:21:58;4.40;;;1.95;;
26989;SDS011;14537;47.788;11.858;2024-01-06T08:24:23;4.93;;;1.40;;
26989;SDS011;14537;47.788;11.858;2024-01-06T08:26:49;1.63;;;1.00;;
26989;SDS011;14537;47.788;11.858;2024-01-06T08:29:15;2.45;;;1.35;;
26989;SDS011;14537;47.788;11.858;2024-01-06T08:31:41;1.75;;;1.30;;
26989;SDS011;14537;47.788;11.858;2024-01-06T08:34:07;2.50;;;1.80;;
26989;SDS011;14537;47.788;11.858;2024-01-06T08:36:34;2.20;;;1.30;;
26989;SDS011;14537;47.788;11.858;2024-01-06T08:39:00;2.47;;;1.42;;
26989;SDS011;14537;47.788;11.858;2024-01-06T08:41:25;2.83;;;1.38;;
26989;SDS011;14537;47.788;11.858;2024-01-06T08:43:51;3.33;;;2.05;;
26989;SDS011;14537;47.788;11.858;2024-01-06T08:46:16;2.20;;;1.10;;
26989;SDS011;14537;47.788;11.858;2024-01-06T08:48:42;2.05;;;1.38;;
26989;SDS011;14537;47.788;11.858;2024-01-06T08:51:08;2.10;;;1.20;;
26989;SDS011;14537;47.788;11.858;2024-01-06T08:53:34;1.90;;;1.40;;
26989;SDS011;14537;47.788;11.858;2024-01-06T08:55:59;1.58;;;1.10;;
26989;SDS011;14537;47.788;11.858;2024-01-06T08:58:25;1.73;;;1.27;;
26989;SDS011;14537;47.788;11.858;2024-01-06T09:00:50;2.80;;;1.10;;
26989;SDS011;14537;47.788;11.858;2024-01-06T09:03:18;1.15;;;0.85;;
26989;SDS011;14537;47.788;11.858;2024-01-06T09:05:50;1.85;;;1.35;;
26989;SDS011;14537;47.788;11.858;2024-01-06T09:08:16;1.90;;;1.38;;
26989;SDS011;14537;47.788;11.858;2024-01-06T09:10:42;2.08;;;1.40;;
26989;SDS011;14537;47.788;11.858;2024-01-06T09:13:08;3.40;;;1.70;;
26989;SDS011;14537;47.788;11.858;2024-01-06T09:15:33;3.85;;;1.80;;
26989;SDS011;14537;47.788;11.858;2024-01-06T09:17:59;2.97;;;1.98;;
26989;SDS011;14537;47.788;11.858;2024-01-06T09:20:25;6.13;;;2.92;;
26989;SDS011;14537;47.788;11.858;2024-01-06T09:22:52;5.57;;;2.47;;
26989;SDS011;14537;47.788;11.858;2024-01-06T09:25:18;3.78;;;2.10;;
26989;SDS011;14537;47.788;11.858;2024-01-06T09:27:43;2.30;;;1.20;;
26989;SDS011;14537;47.788;11.858;2024-01-06T09:30:09;2.85;;;1.60;;
26989;SDS011;14537;47.788;11.858;2024-01-06T09:32:36;3.97;;;1.75;;
26989;SDS011;14537;47.788;11.858;2024-01-06T09:35:01;8.60;;;3.35;;
26989;SDS011;14537;47.788;11.858;2024-01-06T09:37:28;8.55;;;2.53;;
26989;SDS011;14537;47.788;11.858;2024-01-06T09:39:54;2.75;;;1.85;;
26989;SDS011;14537;47.788;11.858;2024-01-06T09:42:20;4.90;;;2.85;;
26989;SDS011;14537;47.788;11.858;2024-01-06T09:44:45;4.70;;;2.70;;
26989;SDS011;14537;47.788;11.858;2024-01-06T09:47:11;5.72;;;2.42;;
26989;SDS011;14537;47.788;11.858;2024-01-06T09:49:38;2.05;;;1.58;;
26989;SDS011;14537;47.788;11.858;2024-01-06T09:52:07;1.48;;;1.00;;
26989;SDS011;14537;47.788;11.858;2024-01-06T09:54:39;13.77;;;5.40;;
26989;SDS011;14537;47.788;11.858;2024-01-06T09:57:10;3.63;;;1.75;;
26989;SDS011;14537;47.788;11.858;2024-01-06T09:59:35;14.65;;;5.18;;
26989;SDS011;14537;47.788;11.858;2024-01-06T10:02:03;2.03;;;1.20;;
26989;SDS011;14537;47.788;11.858;2024-01-06T10:04:29;5.72;;;2.45;;
26989;SDS011;14537;47.788;11.858;2024-01-06T10:06:55;3.78;;;1.80;;
26989;SDS011;14537;47.788;11.858;2024-01-06T10:09:27;4.28;;;2.33;;
26989;SDS011;14537;47.788;11.858;2024-01-06T10:11:56;1.50;;;1.23;;
26989;SDS011;14537;47.788;11.858;2024-01-06T10:14:25;2.10;;;1.50;;
26989;SDS011;14537;47.788;11.858;2024-01-06T10:16:52;0.93;;;0.90;;
26989;SDS011;14537;47.788;11.858;2024-01-06T10:19:18;2.55;;;1.40;;
26989;SDS011;14537;47.788;11.858;2024-01-06T10:21:44;1.98;;;1.33;;
26989;SDS011;14537;47.788;11.858;2024-01-06T10:24:09;2.30;;;1.13;;
26989;SDS011;14537;47.788;11.858;2024-01-06T10:26:35;1.63;;;1.13;;
26989;SDS011;14537;47.788;11.858;2024-01-06T10:29:01;1.55;;;1.05;;
26989;SDS011;14537;47.788;11.858;2024-01-06T10:31:27;0.90;;;0.90;;
26989;SDS011;14537;47.788;11.858;2024-01-06T10:33:54;1.38;;;1.00;;
26989;SDS011;14537;47.788;11.858;2024-01-06T10:36:21;1.75;;;1.25;;
26989;SDS011;14537;47.788;11.858;2024-01-06T10:38:48;2.80;;;1.52;;
26989;SDS011;14537;47.788;11.858;2024-01-06T10:41:15;3.17;;;1.40;;
26989;SDS011;14537;47.788;11.858;2024-01-06T10:43:42;4.22;;;1.58;;
26989;SDS011;14537;47.788;11.858;2024-01-06T10:46:09;1.75;;;1.38;;
26989;SDS011;14537;47.788;11.858;2024-01-06T10:48:36;7.95;;;4.72;;
26989;SDS011;14537;47.788;11.858;2024-01-06T10:51:09;5.60;;;3.35;;
26989;SDS011;14537;47.788;11.858;2024-01-06T10:53:35;3.67;;;2.22;;
26989;SDS011;14537;47.788;11.858;2024-01-06T10:56:02;6.25;;;3.30;;
26989;SDS011;14537;47.788;11.858;2024-01-06T10:58:29;5.00;;;2.97;;
26989;SDS011;14537;47.788;11.858;2024-01-06T11:00:57;7.00;;;3.80;;
26989;SDS011;14537;47.788;11.858;2024-01-06T11:03:23;10.32;;;5.60;;
26989;SDS011;14537;47.788;11.858;2024-01-06T11:05:50;9.70;;;4.53;;
26989;SDS011;14537;47.788;11.858;2024-01-06T11:08:17;6.88;;;3.83;;
26989;SDS011;14537;47.788;11.858;2024-01-06T11:10:43;10.18;;;4.88;;
26989;SDS011;14537;47.788;11.858;2024-01-06T11:15:40;19.50;;;7.78;;
26989;SDS011;14537;47.788;11.858;2024-01-06T11:18:10;20.38;;;7.30;;
26989;SDS011;14537;47.788;11.858;2024-01-06T11:21:14;12.52;;;5.45;;
26989;SDS011;14537;47.788;11.858;2024-01-06T11:23:44;13.60;;;6.47;;
26989;SDS011;14537;47.788;11.858;2024-01-06T11:26:10;57.50;;;12.00;;
26989;SDS011;14537;47.788;11.858;2024-01-06T11:28:45;35.13;;;11.73;;
26989;SDS011;14537;47.788;11.858;2024-01-06T11:31:11;28.67;;;9.55;;
26989;SDS011;14537;47.788;11.858;2024-01-06T11:33:43;20.05;;;6.90;;
26989;SDS011;14537;47.788;11.858;2024-01-06T11:36:09;27.55;;;8.88;;
26989;SDS011;14537;47.788;11.858;2024-01-06T11:38:39;25.90;;;9.63;;
26989;SDS011;14537;47.788;11.858;2024-01-06T11:41:08;18.58;;;7.30;;
26989;SDS011;14537;47.788;11.858;2024-01-06T11:43:37;12.95;;;5.45;;
26989;SDS011;14537;47.788;11.858;2024-01-06T11:46:05;6.90;;;3.95;;
26989;SDS011;14537;47.788;11.858;2024-01-06T11:48:34;9.93;;;3.88;;
26989;SDS011;14537;47.788;11.858;2024-01-06T11:51:01;4.20;;;2.92;;
26989;SDS011;14537;47.788;11.858;2024-01-06T11:53:28;7.55;;;2.97;;
26989;SDS011;14537;47.788;11.858;2024-01-06T11:55:54;6.25;;;3.20;;
26989;SDS011;14537;47.788;11.858;2024-01-06T11:58:20;4.75;;;2.97;;
26989;SDS011;14537;47.788;11.858;2024-01-06T12:00:54;5.75;;;3.47;;
26989;SDS011;14537;47.788;11.858;2024-01-06T12:03:21;7.40;;;3.42;;
26989;SDS011;14537;47.788;11.858;2024-01-06T12:05:58;4.80;;;2.80;;
26989;SDS011;14537;47.788;11.858;2024-01-06T12:08:26;5.82;;;3.15;;
26989;SDS011;14537;47.788;11.858;2024-01-06T12:11:01;5.20;;;2.90;;
26989;SDS011;14537;47.788;11.858;2024-01-06T12:13:30;4.38;;;2.75;;
26989;SDS011;14537;47.788;11.858;2024-01-06T12:15:56;5.13;;;2.65;;
26989;SDS011;14537;47.788;11.858;2024-01-06T12:18:21;7.60;;;3.80;;
26989;SDS011;14537;47.788;11.858;2024-01-06T12:20:49;10.18;;;4.18;;
26989;SDS011;14537;47.788;11.858;2024-01-06T12:23:27;4.00;;;2.10;;
26989;SDS011;14537;47.788;11.858;2024-01-06T12:25:54;1.33;;;0.70;;
26989;SDS011;14537;47.788;11.858;2024-01-06T12:28:20;3.70;;;1.13;;
26989;SDS011;14537;47.788;11.858;2024-01-06T12:30:46;3.50;;;1.92;;
26989;SDS011;14537;47.788;11.858;2024-01-06T12:33:11;7.40;;;2.92;;
26989;SDS011;14537;47.788;11.858;2024-01-06T12:35:38;3.97;;;2.33;;
26989;SDS011;14537;47.788;11.858;2024-01-06T12:38:04;4.47;;;2.63;;
26989;SDS011;14537;47.788;11.858;2024-01-06T12:40:34;5.32;;;2.92;;
26989;SDS011;14537;47.788;11.858;2024-01-06T12:43:01;7.10;;;4.03;;
26989;SDS011;14537;47.788;11.858;2024-01-06T12:45:27;6.43;;;3.67;;
26989;SDS011;14537;47.788;11.858;2024-01-06T12:47:54;4.43;;;2.60;;
26989;SDS011;14537;47.788;11.858;2024-01-06T12:50:19;3.75;;;2.40;;
26989;SDS011;14537;47.788;11.858;2024-01-06T12:52:45;4.22;;;2.70;;
26989;SDS011;14537;47.788;11.858;2024-01-06T12:55:11;5.43;;;2.75;;
26989;SDS011;14537;47.788;11.858;2024-01-06T12:57:37;4.75;;;2.95;;
26989;SDS011;14537;47.788;11.858;2024-01-06T13:00:03;5.38;;;3.47;;
26989;SDS011;14537;47.788;11.858;2024-01-06T13:02:31;4.07;;;2.67;;
26989;SDS011;14537;47.788;11.858;2024-01-06T13:04:56;2.65;;;2.00;;
26989;SDS011;14537;47.788;11.858;2024-01-06T13:07:22;4.80;;;1.50;;
26989;SDS011;14537;47.788;11.858;2024-01-06T13:09:48;5.00;;;2.63;;
26989;SDS011;14537;47.788;11.858;2024-01-06T13:12:14;4.63;;;2.65;;
26989;SDS011;14537;47.788;11.858;2024-01-06T13:14:40;3.15;;;2.30;;
26989;SDS011;14537;47.788;11.858;2024-01-06T13:17:07;4.97;;;2.85;;
26989;SDS011;14537;47.788;11.858;2024-01-06T13:19:34;6.80;;;3.95;;
26989;SDS011;14537;47.788;11.858;2024-01-06T13:22:00;4.88;;;3.17;;
26989;SDS011;14537;47.788;11.858;2024-01-06T13:24:25;7.47;;;3.53;;
26989;SDS011;14537;47.788;11.858;2024-01-06T13:26:51;8.80;;;3.97;;
26989;SDS011;14537;47.788;11.858;2024-01-06T13:29:16;18.67;;;6.55;;
26989;SDS011;14537;47.788;11.858;2024-01-06T13:31:43;18.38;;;6.60;;
26989;SDS011;14537;47.788;11.858;2024-01-06T13:34:09;8.88;;;3.75;;
26989;SDS011;14537;47.788;11.858;2024-01-06T13:36:34;7.60;;;2.33;;
26989;SDS011;14537;47.788;11.858;2024-01-06T13:39:01;28.25;;;8.45;;
26989;SDS011;14537;47.788;11.858;2024-01-06T13:41:29;26.85;;;8.98;;
26989;SDS011;14537;47.788;11.858;2024-01-06T13:43:54;12.35;;;3.80;;
26989;SDS011;14537;47.788;11.858;2024-01-06T13:46:20;3.33;;;1.70;;
26989;SDS011;14537;47.788;11.858;2024-01-06T13:48:45;3.95;;;1.80;;
26989;SDS011;14537;47.788;11.858;2024-01-06T13:51:11;3.35;;;1.58;;
26989;SDS011;14537;47.788;11.858;2024-01-06T13:53:36;0.80;;;0.75;;
26989;SDS011;14537;47.788;11.858;2024-01-06T13:56:04;1.35;;;0.90;;
26989;SDS011;14537;47.788;11.858;2024-01-06T13:58:30;5.05;;;2.42;;
26989;SDS011;14537;47.788;11.858;2024-01-06T14:00:56;1.35;;;1.05;;
26989;SDS011;14537;47.788;11.858;2024-01-06T14:03:22;1.33;;;1.00;;
26989;SDS011;14537;47.788;11.858;2024-01-06T14:05:47;1.35;;;1.00;;
26989;SDS011;14537;47.788;11.858;2024-01-06T14:08:13;1.20;;;0.73;;
26989;SDS011;14537;47.788;11.858;2024-01-06T14:10:39;1.40;;;1.05;;
26989;SDS011;14537;47.788;11.858;2024-01-06T14:13:04;0.98;;;0.80;;
26989;SDS011;14537;47.788;11.858;2024-01-06T14:15:32;1.60;;;0.90;;
26989;SDS011;14537;47.788;11.858;2024-01-06T14:18:00;5.10;;;2.05;;
26989;SDS011;14537;47.788;11.858;2024-01-06T14:20:26;1.10;;;0.75;;
26989;SDS011;14537;47.788;11.858;2024-01-06T14:22:52;1.17;;;0.52;;
26989;SDS011;14537;47.788;11.858;2024-01-06T14:25:18;4.03;;;1.25;;
26989;SDS011;14537;47.788;11.858;2024-01-06T14:27:44;13.20;;;5.28;;
26989;SDS011;14537;47.788;11.858;2024-01-06T14:30:10;8.73;;;4.95;;
26989;SDS011;14537;47.788;11.858;2024-01-06T14:32:36;8.85;;;4.90;;